Flight Track Log - Related Links

Times and Time Zones

All times are in EDT time to prevent confusion due to time zone crossing. See the TAM3621 flight status page for this flight to view local times or setup timezone preferences in your user account.

Time Position Orientation Groundspeed Altitude Reporting Facility
EDT Latitude Longitude Course Direction KTS MPH feet Rate Location/Type
Tue 04:01:52 PM -15.8600 -47.8730 86° East 155 178 5,100  Level FlightAware ADS-B
Tue 04:02:22 PM -15.8590 -47.8430 88° East 192 221 5,600 1,091 Climbing FlightAware ADS-B
Tue 04:02:47 PM -15.8570 -47.8160 86° East 238 274 6,100 1,320 Climbing FlightAware ADS-B
Tue 04:03:12 PM -15.8550 -47.7860 86° East 264 304 6,700 2,000 Climbing FlightAware ADS-B
Tue 04:03:32 PM -15.8610 -47.7610 104° East 283 326 7,600 2,800 Climbing FlightAware ADS-B
Tue 04:03:42 PM -15.8710 -47.7500 133° Southeast 287 330 8,100 2,700 Climbing FlightAware ADS-B
Tue 04:03:52 PM -15.8790 -47.7450 149° Southeast 291 335 8,500 2,700 Climbing FlightAware ADS-B
Tue 04:04:02 PM -15.8940 -47.7410 166° South 294 338 9,000 3,257 Climbing FlightAware ADS-B
Tue 04:04:27 PM -15.9280 -47.7540 200° South 298 343 10,400 2,215 Climbing FlightAware ADS-B
Tue 04:05:07 PM -15.9810 -47.7870 211° Southwest 343 395 11,400 1,976 Climbing FlightAware ADS-B
Tue 04:05:52 PM -16.0370 -47.8230 212° Southwest 355 409 13,200 2,541 Climbing FlightAware ADS-B
Tue 04:06:32 PM -16.1060 -47.8490 200° South 362 417 15,000 2,475 Climbing FlightAware ADS-B
Tue 04:07:12 PM -16.1700 -47.8560 186° South 363 418 16,500 1,976 Climbing FlightAware ADS-B
Tue 04:07:57 PM -16.2500 -47.8650 186° South 379 436 17,800 1,765 Climbing FlightAware ADS-B
Tue 04:08:37 PM -16.3200 -47.8740 187° South 386 444 19,000 1,835 Climbing FlightAware ADS-B
Tue 04:09:22 PM -16.4010 -47.8840 187° South 393 452 20,400 1,835 Climbing FlightAware ADS-B
Tue 04:10:02 PM -16.4730 -47.8930 187° South 396 456 21,600 1,650 Climbing FlightAware ADS-B
Tue 04:10:42 PM -16.5470 -47.9020 187° South 404 465 22,600 1,275 Climbing FlightAware ADS-B
Tue 04:11:22 PM -16.6190 -47.9110 187° South 414 476 23,300 1,271 Climbing FlightAware ADS-B
Tue 04:12:07 PM -16.7100 -47.9220 187° South 422 486 24,400 1,500 Climbing FlightAware ADS-B
Tue 04:12:42 PM -16.7770 -47.9290 186° South 425 489 25,300 675 Climbing FlightAware ADS-B
Tue 04:13:27 PM -16.8540 -47.9320 182° South 425 489 25,300  Level FlightAware ADS-B
Tue 04:14:07 PM -16.9210 -47.9350 182° South 425 489 25,300  Level FlightAware ADS-B
Tue 04:14:57 PM -17.0040 -47.9380 182° South 425 489 25,300  Level FlightAware ADS-B
Tue 04:15:37 PM -17.0710 -47.9400 182° South 425 489 25,300  Level FlightAware ADS-B
Tue 04:16:17 PM -17.1380 -47.9430 182° South 425 489 25,300 958 Level FlightAware ADS-B
Tue 04:18:00 PM -17.2655 -47.9261 173° South  Level Estimated
Tue 04:19:00 PM -17.3397 -47.9162 173° South  Level Estimated
Tue 04:20:00 PM -17.4140 -47.9063 173° South  Level Estimated
Tue 04:21:00 PM -17.4882 -47.8964 173° South  Level Estimated
Tue 04:22:00 PM -17.5625 -47.8865 173° South  Level Estimated
Tue 04:23:00 PM -17.6367 -47.8766 173° South  Level Estimated
Tue 04:24:00 PM -17.7110 -47.8667 173° South  Level Estimated
Tue 04:25:00 PM -17.7830 -47.8570 173° South  Level Estimated
Tue 04:26:00 PM -17.8550 -47.8474 173° South  Level Estimated
Tue 04:27:00 PM -17.9270 -47.8377 173° South  Level Estimated
Tue 04:28:00 PM -17.9990 -47.8281 173° South  Level Estimated
Tue 04:28:52 PM -18.7220 -47.6560 173° South 430 495 38,000  Level FlightAware ADS-B
Tue 04:29:00 PM -18.0710 -47.8184 173° South  Level Estimated
Tue 04:29:32 PM -18.7890 -47.6460 172° South 430 495 38,000  Level FlightAware ADS-B
Tue 04:30:17 PM -18.9020 -47.6300 172° South 431 496 38,000  Level FlightAware ADS-B
Tue 04:30:57 PM -18.9820 -47.6190 173° South 431 496 38,000  Level FlightAware ADS-B
Tue 04:31:42 PM -19.0710 -47.6060 172° South 432 497 38,000  Level FlightAware ADS-B
Tue 04:32:22 PM -19.1490 -47.5950 172° South 432 497 38,000  Level FlightAware ADS-B
Tue 04:33:07 PM -19.2380 -47.5820 172° South 431 496 38,000  Level FlightAware ADS-B
Tue 04:33:52 PM -19.3290 -47.5690 172° South 431 496 38,000  Level FlightAware ADS-B
Tue 04:34:32 PM -19.4050 -47.5580 172° South 431 496 38,000  Level FlightAware ADS-B
Tue 04:35:12 PM -19.4860 -47.5460 172° South 430 495 38,000  Level FlightAware ADS-B
Tue 04:35:57 PM -19.5760 -47.5330 172° South 430 495 38,000  Level FlightAware ADS-B
Tue 04:36:37 PM -19.6530 -47.5210 172° South 432 497 38,000  Level FlightAware ADS-B
Tue 04:37:22 PM -19.7450 -47.5140 176° South 427 491 38,000  Level FlightAware ADS-B
Tue 04:38:02 PM -19.8230 -47.5210 185° South 420 483 38,000  Level FlightAware ADS-B
Tue 04:38:42 PM -19.9000 -47.5350 190° South 419 482 38,000  Level FlightAware ADS-B
Tue 04:39:27 PM -19.9860 -47.5520 191° South 420 483 38,000  Level FlightAware ADS-B
Tue 04:40:02 PM -20.0520 -47.5640 190° South 421 484 38,000  Level FlightAware ADS-B
Tue 04:41:07 PM -20.1660 -47.5860 190° South 421 484 38,000  Level FlightAware ADS-B
Tue 04:42:07 PM -20.2830 -47.6090 190° South 421 484 38,000  Level FlightAware ADS-B
Tue 04:42:57 PM -20.3820 -47.6280 190° South 420 483 38,000  Level FlightAware ADS-B
Tue 04:44:07 PM -20.5160 -47.6540 190° South 418 481 38,000  Level FlightAware ADS-B
Tue 04:44:47 PM -20.6030 -47.6710 190° South 418 481 38,000  Level FlightAware ADS-B
Tue 04:45:27 PM -20.6780 -47.6850 190° South 417 480 38,000  Level FlightAware ADS-B
Tue 04:46:07 PM -20.7550 -47.7000 190° South 415 478 38,000  Level FlightAware ADS-B
Tue 04:46:52 PM -20.8360 -47.7160 190° South 414 476 38,000  Level FlightAware ADS-B
Tue 04:47:37 PM -20.9240 -47.7330 190° South 413 475 38,000  Level FlightAware ADS-B
Tue 04:48:17 PM -20.9970 -47.7470 190° South 413 475 38,000  Level FlightAware ADS-B
Tue 04:48:57 PM -21.0740 -47.7580 188° South 420 483 38,000 -353 Level FlightAware ADS-B
Tue 04:49:42 PM -21.1650 -47.7560 179° South 426 490 37,500 -1,129 Descending FlightAware ADS-B
Tue 04:50:22 PM -21.2430 -47.7410 170° South 436 502 36,400 -1,765 Descending FlightAware ADS-B
Tue 04:51:07 PM -21.3290 -47.7110 162° South 443 510 35,000 -2,118 Descending FlightAware ADS-B
Tue 04:51:47 PM -21.4080 -47.6790 159° South 458 527 33,400 -2,325 Descending FlightAware ADS-B
Tue 04:52:27 PM -21.4860 -47.6480 160° South 449 517 31,900 -2,925 Descending FlightAware ADS-B
Tue 04:53:07 PM -21.5660 -47.6170 160° South 456 525 29,500 -2,965 Descending FlightAware ADS-B
Tue 04:53:52 PM -21.6550 -47.5820 160° South 441 507 27,700 -2,259 Descending FlightAware ADS-B
Tue 04:54:32 PM -21.7300 -47.5530 160° South 426 490 26,300 -2,118 Descending FlightAware ADS-B
Tue 04:55:17 PM -21.8120 -47.5210 160° South 410 472 24,700 -2,188 Descending FlightAware ADS-B
Tue 04:55:57 PM -21.8820 -47.4930 160° South 398 458 23,200 -2,824 Descending FlightAware ADS-B
Tue 04:56:42 PM -21.9630 -47.4620 160° South 413 475 20,700 -2,824 Descending FlightAware ADS-B
Tue 04:57:22 PM -22.0290 -47.4350 159° South 401 461 19,200 -2,118 Descending FlightAware ADS-B
Tue 04:58:07 PM -22.1110 -47.4050 161° South 380 437 17,700 -1,344 Descending FlightAware ADS-B
Tue 04:58:47 PM -22.1720 -47.3990 175° South 17,100 -975 Descending FlightAware ADS-B
Tue 04:59:27 PM -22.2450 -47.3940 176° South 352 405 16,400 -988 Descending FlightAware ADS-B
Tue 05:00:12 PM -22.3180 -47.3880 176° South 349 402 15,700 -565 Descending FlightAware ADS-B
Tue 05:00:52 PM -22.3760 -47.3840 176° South 349 402 15,600 -960 Descending FlightAware ADS-B
Tue 05:01:37 PM -22.4490 -47.3790 176° South 14,400 -1,200 Descending FlightAware ADS-B
Tue 05:03:07 PM -22.5870 -47.3690 176° South 337 388 12,900 -844 Descending FlightAware ADS-B
Tue 05:03:52 PM -22.6590 -47.3630 176° South 333 383 12,500 -960 Descending FlightAware ADS-B
Tue 05:04:47 PM -22.7440 -47.3580 177° South 333 383 11,300 -982 Descending FlightAware ADS-B
Tue 05:06:37 PM -22.8920 -47.2910 157° South 311 358 9,800 -681 Descending FlightAware ADS-B
Tue 05:07:52 PM -22.9810 -47.2240 145° Southeast 303 349 9,200 -960 Descending FlightAware ADS-B
Tue 05:09:07 PM -23.0690 -47.1570 145° Southeast 294 338 7,400 -1,200 Descending FlightAware ADS-B
Tue 05:11:00 PM -23.0082 -47.1347 19° North  Level Estimated
Tue 05:11:27 PM -23.1360 -47.0250 19° North 230 265 4,900  Level FlightAware ADS-B
Tue 05:12:47 PM -23.0800 -47.0320 353° North 175 201 4,000 -729 Descending FlightAware ADS-B
Tue 05:13:47 PM -23.0540 -47.0690 307° West 143 165 3,200 -771 Descending FlightAware ADS-B
Tue 05:13:57 PM -23.0510 -47.0740 303° West 142 163 3,100 -436 Descending FlightAware ADS-B
Tue 05:14:42 PM -23.0320 -47.1010 307° West 141 162 2,800 -480 Descending FlightAware ADS-B
Tue 05:15:12 PM -23.0210 -47.1160 309° West 141 162 2,500 -600 Descending FlightAware ADS-B
Tue 05:17:00 PM -23.0082 -47.1347 307° West  Level Estimated
Tue 05:18:00 PM -23.0082 -47.1347 335° Northwest  Level Estimated
Tue 05:19:00 PM -23.0082 -47.1347 335° Northwest  Level Estimated
Tue 05:20:00 PM -23.0082 -47.1347 335° Northwest  Level Estimated
Tue 05:21:00 PM -23.0082 -47.1347 335° Northwest  Level Estimated
Tue 05:22:00 PM -23.0082 -47.1347 335° Northwest  Level Estimated
Tue 05:23:00 PM -23.0082 -47.1347 335° Northwest  Level Estimated
Tue 05:24:00 PM -23.0082 -47.1347 335° Northwest  Level Estimated
Tue 05:25:00 PM -23.0082 -47.1347 335° Northwest  Level Estimated
Tue 05:26:00 PM -23.0082 -47.1347 335° Northwest  Level Estimated
Tue 05:27:00 PM -23.0082 -47.1347 335° Northwest  Level Estimated
Tue 05:28:00 PM -23.0082 -47.1347 335° Northwest  Level Estimated
Tue 05:29:00 PM -23.0082 -47.1347 335° Northwest  Level Estimated
Tue 05:30:00 PM -23.0082 -47.1347 335° Northwest  Level Estimated
Tue 05:31:00 PM -23.0082 -47.1347 335° Northwest  Level Estimated
Tue 05:32:00 PM -23.0082 -47.1347 335° Northwest  Level Estimated
Tue 05:33:00 PM -23.0082 -47.1347 335° Northwest  Level Estimated
Tue 05:34:00 PM -23.0082 -47.1347 335° Northwest  Level Estimated
Tue 05:35:00 PM -23.0082 -47.1347 335° Northwest  Level Estimated
Tue 05:36:00 PM -23.0082 -47.1347 335° Northwest  Level Estimated
Tue 05:37:00 PM -23.0082 -47.1347 335° Northwest  Level Estimated
Tue 05:38:00 PM -23.0082 -47.1347 335° Northwest  Level Estimated
Tue 05:39:00 PM -23.0082 -47.1347 335° Northwest  Level Estimated
Tue 05:40:00 PM -23.0082 -47.1347 335° Northwest  Level Estimated
Tue 05:41:00 PM -23.0082 -47.1347 335° Northwest  Level Estimated
Tue 05:42:00 PM -23.0082 -47.1347 335° Northwest  Level Estimated
Tue 05:43:00 PM -23.0082 -47.1347 335° Northwest  Level Estimated
Tue 05:44:00 PM -23.0082 -47.1347 335° Northwest  Level Estimated
Tue 05:45:00 PM -23.0082 -47.1347 335° Northwest  Level Estimated
Tue 05:46:00 PM -23.0082 -47.1347 335° Northwest  Level Estimated
Tue 05:47:00 PM -23.0082 -47.1347 335° Northwest  Level Estimated
Tue 05:48:00 PM -23.0082 -47.1347 335° Northwest  Level Estimated
Tue 05:49:00 PM -23.0082 -47.1347 335° Northwest  Level Estimated
Tue 05:50:00 PM -23.0082 -47.1347 335° Northwest  Level Estimated
Tue 05:51:00 PM -23.0082 -47.1347 335° Northwest  Level Estimated
Tue 05:52:00 PM -23.0082 -47.1347 335° Northwest  Level Estimated
Tue 05:53:00 PM -23.0082 -47.1347 335° Northwest  Level Estimated
Tue 05:54:00 PM -23.0082 -47.1347 335° Northwest  Level Estimated
Tue 05:55:00 PM -23.0082 -47.1347 335° Northwest  Level Estimated

Login

Don't have an account? Register now (free) for customized features, flight alerts, and more!